Hamlet, IN (46532)

8:10 AM CST en Diciembre 04, 2016 (GMT -0600)
Starke County | | Change Station

Alt 686 ft 41.33 °N, 86.66 °W | Updated 15 minutes ago

Overcast
Nublado
32 ° F
Sensación térmica 28 ° F
N
5
Viento Variable Viento desde Este

Hoy
Alta -- | Baja -- ° F
--% Posibilidad de precipitaciones
Ayer
Alta -- | Baja -- ° F
Precip. -- pul
Presión 30.16 pul
Visibilidad 10.0 Millas
Nubes Nubes dispersas 7500 ft
Nublado 10000 ft
Vientos helados 28 ° F
Punto de rocío 14 ° F
Humedad 48%
Precipitaciones 0.00 pul
Espesor de la nieve No disponible.
6:56 AM 4:16 PM
Creciente, 23% visible
METAR KOXI 041355Z AUTO 08004KT 10SM SCT075 OVC100 00/M10 A3016 RMK AO1
Presión 30.16 pul
Visibilidad 10.0 Millas
Nubes Nubes dispersas 7500 ft
Nublado 10000 ft
Vientos helados 28 ° F
Punto de rocío 14 ° F
Humedad 48%
Precipitaciones 0.00 pul
Espesor de la nieve No disponible.
6:56 AM 4:16 PM
Creciente, 23% visible
METAR KOXI 041355Z AUTO 08004KT 10SM SCT075 OVC100 00/M10 A3016 RMK AO1

10-Day Weather Forecast

Almanac

Astronomía

Dec. 04, 2016 Salida Puesta
Hora real
Crepúsculo civil
Crepúsculo náutico
Crepúsculo astronómico
Luna
Horas de luz
Horas de luz
Tomorrow will be .
, % of the Moon is Illuminated

Extremos de hoy

Máximos del estado Bajos del estado

Community

WunderPhotos

Upload Photos

1,955,596 ¡fotos cargadas!

WunderBlog® & News

Nearby

Calidad del aire

  Calidad del aire Índice AQ Contaminante
Not available.

Grosos de nieve

Estación Profundido Altura

Actividad de terremotos

Ciudad Distance Mag. Tiempo y dato
Magnitud mínima muestra es 2,5.

Temperaturas de aguas costeras

Lugar Temperatura

Stations

Estaciones meteorológicas cercanas

Ubicación de la estación Temp. Vientos helados Punto de rocío Humedad Viento Precip. Alt Actualizado Tipo
                   

Watches & Warnings

There are currently no watches in effect.